createdAt,value
2018-12-18T00:00:27.328Z,98.80
2018-12-18T00:03:16.040Z,98.80
2018-12-18T00:05:52.418Z,98.80
2018-12-18T00:08:36.687Z,98.80
2018-12-18T00:11:19.609Z,98.80
2018-12-18T00:14:04.487Z,98.80
2018-12-18T00:16:50.787Z,98.80
2018-12-18T00:19:35.349Z,98.80
2018-12-18T00:22:11.951Z,99.10
2018-12-18T00:24:53.059Z,98.80
2018-12-18T00:27:31.803Z,98.80
2018-12-18T00:30:18.962Z,98.80
2018-12-18T00:32:57.337Z,98.80
2018-12-18T00:35:34.202Z,98.80
2018-12-18T00:38:12.483Z,98.80
2018-12-18T00:40:57.592Z,98.80
2018-12-18T00:46:35.019Z,98.80
2018-12-18T00:49:15.250Z,98.80
2018-12-18T00:51:58.155Z,98.80
2018-12-18T00:57:38.317Z,98.80
2018-12-18T01:00:16.114Z,98.70
2018-12-18T01:03:00.595Z,98.70
2018-12-18T01:05:37.356Z,98.70
2018-12-18T01:08:13.386Z,98.70
2018-12-18T01:11:03.900Z,98.70
2018-12-18T01:13:42.361Z,98.70
2018-12-18T01:19:22.225Z,98.70
2018-12-18T01:22:00.096Z,98.70
2018-12-18T01:24:36.643Z,98.80
2018-12-18T01:27:23.664Z,98.70
2018-12-18T01:33:01.154Z,98.80
2018-12-18T01:35:37.555Z,98.80
2018-12-18T01:38:17.973Z,98.70
2018-12-18T01:40:59.051Z,98.70
2018-12-18T01:43:37.507Z,98.70
2018-12-18T01:46:13.757Z,98.80
2018-12-18T01:48:58.268Z,98.80
2018-12-18T01:51:32.613Z,98.70
2018-12-18T01:57:13.815Z,98.70
2018-12-18T01:59:54.350Z,98.70
2018-12-18T02:02:32.852Z,98.60
2018-12-18T02:05:14.500Z,98.60
2018-12-18T02:07:59.289Z,98.60
2018-12-18T02:10:39.609Z,98.60
2018-12-18T02:16:27.146Z,98.60
2018-12-18T02:21:44.496Z,98.70
2018-12-18T02:24:28.920Z,98.70
2018-12-18T02:27:03.639Z,98.70
2018-12-18T02:29:50.001Z,98.70
2018-12-18T02:32:34.575Z,98.70
2018-12-18T02:50:20.492Z,98.60
2018-12-18T02:52:57.054Z,98.60
2018-12-18T02:55:35.057Z,98.60
2018-12-18T02:58:12.045Z,98.50
2018-12-18T03:00:50.907Z,98.60
2018-12-18T03:03:36.093Z,98.60
2018-12-18T03:06:23.247Z,98.60
2018-12-18T03:09:07.866Z,98.60
2018-12-18T03:11:46.614Z,98.60
2018-12-18T03:14:35.177Z,98.60
2018-12-18T03:17:13.659Z,98.60
2018-12-18T03:19:51.745Z,98.50
2018-12-18T03:22:26.919Z,98.60
2018-12-18T03:25:03.373Z,98.60
2018-12-18T03:27:39.854Z,98.60
2018-12-18T03:30:28.399Z,98.60
2018-12-18T03:33:04.894Z,98.60
2018-12-18T03:35:49.380Z,98.60
2018-12-18T03:38:26.439Z,98.70
2018-12-18T03:41:11.589Z,98.70
2018-12-18T03:43:52.705Z,98.60
2018-12-18T03:46:31.367Z,98.60
2018-12-18T03:52:07.144Z,98.60
2018-12-18T03:54:43.815Z,98.60
2018-12-18T03:57:28.167Z,98.60
2018-12-18T04:00:08.923Z,98.60
2018-12-18T04:02:55.978Z,98.60
2018-12-18T04:05:40.854Z,98.60
2018-12-18T04:08:21.086Z,98.60
2018-12-18T04:10:59.105Z,98.60
2018-12-18T04:13:35.332Z,98.70
2018-12-18T04:22:17.581Z,98.60
2018-12-18T04:28:00.975Z,98.60
2018-12-18T04:30:47.846Z,98.60
2018-12-18T04:33:26.498Z,98.60
2018-12-18T04:36:04.581Z,98.60
2018-12-18T04:38:45.793Z,98.60
2018-12-18T04:41:24.257Z,98.70
2018-12-18T04:44:02.558Z,98.70
2018-12-18T04:46:37.629Z,98.70
2018-12-18T04:49:14.399Z,98.70
2018-12-18T05:01:02.463Z,98.70
2018-12-18T05:03:37.197Z,98.60
2018-12-18T05:09:14.781Z,98.60
2018-12-18T05:15:02.004Z,98.60
2018-12-18T05:17:40.482Z,98.60
2018-12-18T05:20:24.743Z,98.70
2018-12-18T05:23:05.261Z,98.60
2018-12-18T05:25:41.929Z,98.60
2018-12-18T05:28:18.845Z,98.60
2018-12-18T05:33:54.891Z,98.60
2018-12-18T05:36:43.822Z,98.60
2018-12-18T05:51:38.449Z,98.60
2018-12-18T05:57:20.776Z,98.70
2018-12-18T06:00:03.346Z,98.70
2018-12-18T06:11:42.412Z,98.60
2018-12-18T06:14:27.760Z,98.60
2018-12-18T06:17:08.712Z,98.60
2018-12-18T06:19:53.694Z,98.70
2018-12-18T06:22:38.591Z,98.60
2018-12-18T06:28:16.814Z,98.60
2018-12-18T06:30:52.994Z,98.70
2018-12-18T06:33:36.535Z,98.60
2018-12-18T06:36:15.065Z,98.70
2018-12-18T06:50:56.836Z,98.60
2018-12-18T06:59:43.043Z,98.60
2018-12-18T07:17:29.320Z,98.80
2018-12-18T07:26:03.306Z,98.60
2018-12-18T07:34:50.073Z,98.70
2018-12-18T07:43:37.682Z,98.70
2018-12-18T07:52:19.420Z,98.70
2018-12-18T08:04:06.582Z,98.70
2018-12-18T08:12:40.531Z,98.70
2018-12-18T08:15:16.903Z,98.70
2018-12-18T08:17:57.181Z,98.80
2018-12-18T08:23:29.861Z,98.90
2018-12-18T08:26:06.527Z,98.90
2018-12-18T08:28:42.738Z,98.90
2018-12-18T08:31:19.379Z,98.90
2018-12-18T08:33:58.270Z,98.90
2018-12-18T08:36:38.835Z,98.80
2018-12-18T08:39:17.458Z,98.70
2018-12-18T08:42:02.138Z,98.70
2018-12-18T08:44:40.416Z,98.70
2018-12-18T08:50:21.739Z,98.80
2018-12-18T08:53:02.633Z,98.70
2018-12-18T08:55:40.819Z,98.70
2018-12-18T09:01:11.454Z,98.70
2018-12-18T09:03:47.315Z,98.70
2018-12-18T09:06:25.446Z,98.70
2018-12-18T09:09:07.884Z,98.80
2018-12-18T09:11:44.833Z,98.70
2018-12-18T09:17:39.748Z,98.70
2018-12-18T09:20:15.696Z,98.60
2018-12-18T09:22:53.810Z,98.60
2018-12-18T09:25:31.743Z,98.30
2018-12-18T09:28:18.202Z,98.60
2018-12-18T09:30:50.390Z,98.50
2018-12-18T09:33:24.490Z,98.50
2018-12-18T09:35:59.280Z,98.50
2018-12-18T09:39:42.903Z,98.50
2018-12-18T09:42:24.543Z,98.50
2018-12-18T09:45:05.634Z,98.40
2018-12-18T09:50:36.755Z,98.40
2018-12-18T09:53:17.292Z,98.40
2018-12-18T09:55:53.894Z,98.40
2018-12-18T09:58:30.678Z,98.40
2018-12-18T10:01:08.869Z,98.30
2018-12-18T10:03:47.038Z,98.30
2018-12-18T10:06:25.167Z,98.30
2018-12-18T10:09:09.791Z,98.20
2018-12-18T10:11:50.563Z,98.20
2018-12-18T10:14:28.850Z,98.10
2018-12-18T10:17:06.783Z,98.10
2018-12-18T10:19:47.310Z,98.10
2018-12-18T10:22:23.853Z,98.10
2018-12-18T10:24:59.763Z,98.10
2018-12-18T10:27:38.692Z,98.00
2018-12-18T10:30:15.521Z,98.00
2018-12-18T10:32:52.118Z,98.00
2018-12-18T10:38:19.817Z,98.00
2018-12-18T10:41:00.417Z,98.00
2018-12-18T10:43:36.605Z,98.00
2018-12-18T10:46:16.828Z,98.00
2018-12-18T10:51:49.999Z,97.90
2018-12-18T10:54:26.208Z,97.90
2018-12-18T10:57:04.270Z,97.90
2018-12-18T11:02:36.269Z,97.90
2018-12-18T11:05:13.679Z,98.00
2018-12-18T11:07:50.548Z,97.90
2018-12-18T11:13:21.103Z,97.90
2018-12-18T11:15:57.139Z,97.90
2018-12-18T11:18:37.944Z,97.90
2018-12-18T11:21:13.974Z,97.90
2018-12-18T11:23:51.826Z,97.90
2018-12-18T11:26:32.323Z,97.80
2018-12-18T11:32:05.702Z,97.80
2018-12-18T11:37:45.088Z,97.80
2018-12-18T11:40:23.455Z,97.80
2018-12-18T11:43:02.305Z,97.80
2018-12-18T11:45:38.550Z,97.90
2018-12-18T11:51:07.118Z,97.80
2018-12-18T11:53:47.523Z,97.80
2018-12-18T11:56:28.543Z,97.80
2018-12-18T11:59:04.682Z,97.70
2018-12-18T12:01:40.797Z,97.70
2018-12-18T12:04:28.614Z,97.70
2018-12-18T12:07:06.582Z,97.70
2018-12-18T12:09:43.401Z,97.60
2018-12-18T12:12:19.527Z,97.60
2018-12-18T12:14:55.826Z,97.70
2018-12-18T12:17:34.825Z,97.60
2018-12-18T12:20:12.887Z,97.70
2018-12-18T12:22:50.754Z,97.70
2018-12-18T12:25:28.698Z,97.60
2018-12-18T12:28:09.013Z,97.60
2018-12-18T12:30:45.197Z,97.60
2018-12-18T12:33:22.015Z,97.90
2018-12-18T12:35:59.926Z,97.50
2018-12-18T12:41:28.811Z,97.60
2018-12-18T12:44:05.819Z,97.60
2018-12-18T12:46:42.434Z,97.60
2018-12-18T12:49:26.934Z,97.50
2018-12-18T12:52:03.589Z,97.50
2018-12-18T12:54:39.869Z,97.40
2018-12-18T12:57:20.095Z,97.40
2018-12-18T12:59:56.785Z,97.40
2018-12-18T13:02:34.860Z,97.30
2018-12-18T13:05:11.653Z,97.30
2018-12-18T13:13:00.582Z,97.30
2018-12-18T13:15:37.491Z,97.20
2018-12-18T13:18:15.427Z,97.20
2018-12-18T13:20:53.436Z,97.30
2018-12-18T13:26:24.922Z,97.20
2018-12-18T13:29:01.554Z,97.20
2018-12-18T13:31:37.642Z,97.30
2018-12-18T13:37:13.630Z,97.20
2018-12-18T13:39:50.158Z,97.20
2018-12-18T13:42:27.047Z,97.10
2018-12-18T13:45:05.463Z,97.20
2018-12-18T13:47:44.183Z,97.20
2018-12-18T13:50:25.072Z,97.20
2018-12-18T13:53:01.281Z,97.20
2018-12-18T13:58:30.706Z,97.30
2018-12-18T14:01:06.815Z,97.40
2018-12-18T14:03:49.317Z,97.40
2018-12-18T14:06:23.770Z,97.40
2018-12-18T14:11:57.055Z,97.30
2018-12-18T14:14:37.941Z,97.40
2018-12-18T14:17:14.343Z,97.40
2018-12-18T14:22:51.271Z,97.40
2018-12-18T14:25:26.478Z,97.50
2018-12-18T14:28:03.390Z,97.40
2018-12-18T14:33:32.581Z,97.50
2018-12-18T14:36:11.398Z,97.40
2018-12-18T14:38:50.118Z,97.50
2018-12-18T14:41:28.218Z,97.50
2018-12-18T14:46:59.897Z,97.40
2018-12-18T14:49:46.487Z,97.50
2018-12-18T14:52:40.636Z,97.50
2018-12-18T14:58:25.812Z,97.50
2018-12-18T15:04:04.346Z,97.50
2018-12-18T15:06:42.530Z,97.60
2018-12-18T15:12:13.347Z,97.50
2018-12-18T15:17:46.042Z,97.60
2018-12-18T15:20:22.061Z,97.60
2018-12-18T15:23:00.309Z,97.60
2018-12-18T15:25:41.502Z,97.60
2018-12-18T15:31:12.950Z,97.70
2018-12-18T15:33:52.271Z,97.70
2018-12-18T15:36:28.593Z,97.70
2018-12-18T15:41:57.311Z,97.70
2018-12-18T15:44:33.626Z,97.70
2018-12-18T15:47:11.475Z,97.70
2018-12-18T15:52:39.078Z,97.70
2018-12-18T15:55:19.602Z,97.70
2018-12-18T15:57:58.108Z,97.70
2018-12-18T16:00:34.714Z,97.80
2018-12-18T16:06:02.450Z,97.80
2018-12-18T16:08:42.763Z,97.80
2018-12-18T16:11:19.017Z,97.80
2018-12-18T16:13:57.248Z,97.80
2018-12-18T16:19:39.295Z,97.80
2018-12-18T16:25:13.749Z,97.90
2018-12-18T16:30:44.359Z,98.00
2018-12-18T16:36:13.262Z,98.00
2018-12-18T16:38:49.684Z,98.00
2018-12-18T16:44:18.910Z,98.00
2018-12-18T16:46:55.907Z,98.00
2018-12-18T16:49:33.768Z,98.00
2018-12-18T16:54:59.664Z,98.00
2018-12-18T16:57:38.914Z,98.00
2018-12-18T17:00:20.968Z,98.00
2018-12-18T17:02:57.479Z,98.00
2018-12-18T17:05:35.456Z,98.00
2018-12-18T17:11:03.362Z,98.10
2018-12-18T17:13:39.370Z,98.10
2018-12-18T17:16:17.471Z,98.10
2018-12-18T17:18:57.327Z,98.10
2018-12-18T17:21:35.474Z,98.10
2018-12-18T17:24:11.794Z,98.00
2018-12-18T17:26:48.559Z,98.00
2018-12-18T17:32:19.508Z,98.00
2018-12-18T17:34:54.575Z,98.00
2018-12-18T17:37:36.285Z,98.00
2018-12-18T17:40:12.635Z,98.00
2018-12-18T17:42:49.656Z,98.00
2018-12-18T17:45:32.926Z,98.00
2018-12-18T17:48:11.514Z,97.90
2018-12-18T17:50:49.481Z,97.90
2018-12-18T17:53:26.281Z,97.90
2018-12-18T17:56:02.411Z,97.90
2018-12-18T17:58:42.778Z,97.90
2018-12-18T18:04:12.257Z,97.90
2018-12-18T18:06:58.283Z,97.90
2018-12-18T18:09:36.914Z,97.90
2018-12-18T18:12:15.015Z,97.90
2018-12-18T18:14:55.450Z,97.90
2018-12-18T18:17:30.038Z,97.90
2018-12-18T18:20:06.395Z,97.90
2018-12-18T18:22:45.007Z,97.80
2018-12-18T18:25:23.337Z,97.80
2018-12-18T18:28:00.255Z,97.80
2018-12-18T18:30:35.553Z,97.80
2018-12-18T18:33:14.305Z,97.80
2018-12-18T18:35:51.235Z,97.80
2018-12-18T18:38:31.933Z,97.90
2018-12-18T18:41:10.311Z,97.80
2018-12-18T18:43:48.367Z,97.80
2018-12-18T18:46:24.608Z,97.70
2018-12-18T18:49:02.625Z,97.80
2018-12-18T18:51:39.367Z,97.80
2018-12-18T18:54:17.595Z,97.80
2018-12-18T18:56:55.527Z,97.80
2018-12-18T18:59:40.637Z,97.80
2018-12-18T19:02:21.671Z,97.80
2018-12-18T19:04:58.182Z,97.80
2018-12-18T19:10:27.632Z,97.80
2018-12-18T19:13:04.650Z,97.80
2018-12-18T19:15:41.470Z,97.80
2018-12-18T19:18:17.605Z,97.80
2018-12-18T19:20:55.599Z,97.70
2018-12-18T19:23:33.637Z,97.70
2018-12-18T19:26:12.616Z,97.70
2018-12-18T19:28:53.610Z,97.70
2018-12-18T19:31:31.628Z,97.60
2018-12-18T19:34:20.718Z,97.70
2018-12-18T19:36:58.920Z,97.70
2018-12-18T19:39:35.644Z,97.70
2018-12-18T19:42:14.812Z,97.60
2018-12-18T19:44:52.939Z,97.90
2018-12-18T19:47:31.439Z,97.60
2018-12-18T19:50:11.920Z,97.70
2018-12-18T19:52:48.002Z,97.70
2018-12-18T19:55:25.891Z,97.70
2018-12-18T19:58:03.759Z,97.70
2018-12-18T20:00:38.826Z,97.70
2018-12-18T20:03:15.511Z,97.60
2018-12-18T20:05:56.007Z,97.60
2018-12-18T20:08:32.558Z,97.60
2018-12-18T20:11:10.525Z,97.60
2018-12-18T20:13:50.839Z,97.60
2018-12-18T20:16:27.668Z,97.60
2018-12-18T20:19:08.023Z,97.60
2018-12-18T20:21:48.890Z,97.60
2018-12-18T20:24:27.683Z,97.60
2018-12-18T20:29:58.909Z,97.50
2018-12-18T20:32:35.730Z,97.50
2018-12-18T20:35:13.896Z,97.50
2018-12-18T20:37:51.735Z,97.50
2018-12-18T20:40:29.735Z,97.50
2018-12-18T20:43:06.532Z,97.50
2018-12-18T20:45:45.393Z,97.50
2018-12-18T20:48:25.783Z,97.50
2018-12-18T20:51:04.414Z,97.50
2018-12-18T20:53:40.603Z,97.50
2018-12-18T20:59:10.031Z,97.50
2018-12-18T21:01:48.689Z,97.50
2018-12-18T21:04:29.141Z,97.40
2018-12-18T21:07:05.579Z,97.40
2018-12-18T21:09:43.781Z,97.40
2018-12-18T21:12:28.812Z,97.40
2018-12-18T21:18:03.379Z,97.40
2018-12-18T21:20:42.462Z,97.30
2018-12-18T21:23:21.343Z,97.40
2018-12-18T21:46:31.300Z,97.20
2018-12-18T21:49:09.396Z,97.20
2018-12-18T21:51:46.623Z,97.20
2018-12-18T21:54:27.413Z,97.10
2018-12-18T21:57:03.969Z,97.10
2018-12-18T21:59:42.171Z,97.20
2018-12-18T22:02:20.856Z,97.10
2018-12-18T22:04:56.983Z,97.10
2018-12-18T22:07:33.966Z,97.00
2018-12-18T22:10:10.565Z,97.00
2018-12-18T22:12:48.739Z,97.00
2018-12-18T22:18:17.198Z,96.90
2018-12-18T22:20:55.415Z,96.90
2018-12-18T22:23:31.650Z,96.90
2018-12-18T22:29:01.113Z,96.80
2018-12-18T22:31:39.118Z,96.80
2018-12-18T22:34:17.135Z,96.70
2018-12-18T22:36:56.532Z,96.70
2018-12-18T22:39:33.145Z,96.70
2018-12-18T22:42:12.083Z,96.80
2018-12-18T22:44:50.962Z,96.70
2018-12-18T22:47:27.732Z,96.70
2018-12-18T22:50:06.347Z,96.70
2018-12-18T22:52:47.247Z,96.70
2018-12-18T22:55:26.284Z,96.60
2018-12-18T22:58:03.131Z,96.60
2018-12-18T23:00:46.515Z,96.50
2018-12-18T23:03:22.808Z,96.50
2018-12-18T23:05:58.924Z,96.50
2018-12-18T23:08:41.357Z,96.50
2018-12-18T23:11:18.217Z,96.50
2018-12-18T23:13:56.910Z,96.50
2018-12-18T23:16:35.023Z,96.40
2018-12-18T23:19:12.990Z,96.40
2018-12-18T23:21:51.097Z,96.40
2018-12-18T23:24:27.892Z,96.40
2018-12-18T23:27:05.827Z,96.30
2018-12-18T23:29:41.052Z,96.40
2018-12-18T23:32:17.492Z,96.40
2018-12-18T23:34:53.922Z,96.40
2018-12-18T23:37:34.476Z,96.30
2018-12-18T23:40:08.982Z,96.30
2018-12-18T23:42:47.093Z,96.30
2018-12-18T23:45:23.084Z,96.30
2018-12-18T23:48:01.097Z,96.30
2018-12-18T23:50:37.731Z,96.30
2018-12-18T23:53:15.943Z,96.20
2018-12-18T23:55:54.725Z,96.20
2018-12-18T23:58:32.782Z,96.10
